Time;durP1;ratioP1;P1;durP2;ratioP2;P2;SDS_P1;SDS_P2;PMS_P1;PMS_P2;Temp;Humidity;BMP_temperature;BMP_pressure;BME280_temperature;BME280_humidity;BME280_pressure;Samples;Min_cycle;Max_cycle;Signal;HPM_P1;HPM_P2
2021/09/11 11:32:20;;;;;;;23.00;9.38;;;23.90;71.30;;;;;;3050752;29;20055;-89
2021/09/11 11:33:51;;;;;;;20.35;9.85;;;23.80;71.50;;;;;;3052302;29;20056;-89
2021/09/11 11:35:23;;;;;;;17.92;10.35;;;23.90;72.40;;;;;;3052379;29;20044;-89
2021/09/11 11:36:56;;;;;;;23.85;10.65;;;23.80;71.50;;;;;;3048293;29;20059;-89
2021/09/11 11:38:28;;;;;;;;;;;23.80;72.10;;;;;;3049077;29;20048;-89
2021/09/11 11:40:00;;;;;;;21.00;9.85;;;23.80;71.50;;;;;;3050911;29;19923;-89
2021/09/11 11:41:31;;;;;;;25.02;10.50;;;23.80;71.30;;;;;;3052502;29;20048;-88
2021/09/11 11:43:03;;;;;;;28.02;10.07;;;23.80;71.50;;;;;;3051420;29;20123;-90
2021/09/11 11:44:38;;;;;;;23.80;10.00;;;23.80;71.30;;;;;;3048680;29;20060;-89
2021/09/11 11:46:09;;;;;;;21.20;10.45;;;23.80;71.20;;;;;;3049145;29;20579;-89
2021/09/11 11:47:51;;;;;;;18.88;10.05;;;23.70;70.90;;;;;;3049324;29;20060;-89
2021/09/11 11:49:22;;;;;;;21.08;10.13;;;23.70;70.40;;;;;;3050801;29;20476;-89
2021/09/11 11:50:53;;;;;;;15.10;9.90;;;23.70;70.50;;;;;;3050168;29;20052;-90
2021/09/11 11:52:24;;;;;;;16.75;10.10;;;23.60;70.50;;;;;;3050553;29;20436;-89
2021/09/11 11:53:56;;;;;;;21.25;10.40;;;23.60;70.40;;;;;;3050086;29;20048;-90
2021/09/11 11:55:29;;;;;;;17.42;10.40;;;23.60;70.10;;;;;;3050409;29;20052;-89
2021/09/11 11:57:07;;;;;;;17.58;9.82;;;23.60;70.40;;;;;;3050434;29;20060;-89
2021/09/11 11:58:38;;;;;;;16.42;10.27;;;23.50;70.10;;;;;;3046636;29;20369;-90
2021/09/11 12:00:12;;;;;;;15.43;9.70;;;23.60;69.80;;;;;;3038323;29;20056;-90
2021/09/11 12:01:45;;;;;;;15.20;9.98;;;23.60;70.00;;;;;;3040383;29;20111;-89
2021/09/11 12:03:40;;;;;;;13.20;9.82;;;23.50;69.70;;;;;;3038074;29;20315;-89
2021/09/11 12:05:17;;;;;;;13.55;10.35;;;23.50;69.40;;;;;;3039383;29;20112;-89
2021/09/11 12:06:50;;;;;;;17.05;10.70;;;23.50;69.20;;;;;;3062128;29;20052;-90
2021/09/11 12:08:21;;;;;;;22.85;9.85;;;23.60;69.30;;;;;;3061699;29;20048;-90
2021/09/11 12:09:53;;;;;;;13.60;10.00;;;23.50;69.20;;;;;;3062261;29;20094;-89
2021/09/11 12:11:27;;;;;;;14.65;9.77;;;23.60;69.20;;;;;;3061907;29;20043;-89
2021/09/11 12:13:06;;;;;;;13.75;9.65;;;23.50;69.00;;;;;;3061668;29;20060;-90
2021/09/11 12:14:37;;;;;;;13.88;9.27;;;23.60;69.10;;;;;;3062380;29;20522;-90
2021/09/11 12:16:09;;;;;;;11.63;9.27;;;23.50;68.80;;;;;;3061355;29;20047;-90
2021/09/11 12:17:58;;;;;;;14.05;9.55;;;23.60;69.00;;;;;;3061763;29;20044;-89
2021/09/11 12:19:34;;;;;;;12.18;9.57;;;23.50;69.10;;;;;;3062536;29;20095;-89
2021/09/11 12:21:13;;;;;;;13.13;9.20;;;23.60;69.10;;;;;;3061581;29;20063;-90
2021/09/11 12:22:44;;;;;;;10.40;8.55;;;23.50;69.10;;;;;;3061965;29;20103;-89
2021/09/11 12:24:20;;;;;;;11.57;9.05;;;23.50;69.10;;;;;;3062354;29;20064;-89
2021/09/11 12:25:59;;;;;;;20.50;9.23;;;23.50;69.10;;;;;;3061982;29;20460;-90
2021/09/11 12:27:30;;;;;;;12.93;8.70;;;23.50;69.00;;;;;;3062221;29;20057;-89
2021/09/11 12:29:06;;;;;;;11.50;8.60;;;23.60;68.90;;;;;;3061232;29;20048;-90
2021/09/11 12:30:50;;;;;;;11.93;8.77;;;23.50;68.80;;;;;;3061192;29;20166;-89
2021/09/11 12:32:22;;;;;;;11.15;8.70;;;23.60;68.60;;;;;;3054303;29;20044;-89
2021/09/11 12:33:55;;;;;;;11.18;8.23;;;23.60;68.60;;;;;;3049729;29;20385;-89
2021/09/11 12:35:32;;;;;;;11.20;7.93;;;23.60;68.50;;;;;;3067683;23;20047;-90
2021/09/11 12:37:04;;;;;;;10.20;8.00;;;23.60;68.40;;;;;;3060825;28;20059;-89
2021/09/11 12:38:41;;;;;;;12.15;8.38;;;23.60;68.30;;;;;;3065120;29;20050;-88
2021/09/11 12:40:13;;;;;;;10.63;7.70;;;23.60;68.10;;;;;;3057482;29;20044;-87
2021/09/11 12:41:46;;;;;;;9.00;7.30;;;23.70;67.90;;;;;;3049511;29;20052;-88
2021/09/11 12:43:17;;;;;;;9.77;8.18;;;23.70;68.00;;;;;;3049563;29;20546;-88
2021/09/11 12:44:49;;;;;;;10.90;8.07;;;23.80;67.80;;;;;;3049439;29;20051;-89
2021/09/11 12:46:27;;;;;;;7.82;7.03;;;23.80;67.40;;;;;;3048943;29;20044;-89
2021/09/11 12:48:01;;;;;;;8.55;7.57;;;23.80;67.40;;;;;;3049075;29;20055;-87
2021/09/11 12:49:33;;;;;;;9.60;7.40;;;23.80;67.50;;;;;;3049994;29;20579;-88
2021/09/11 12:51:05;;;;;;;9.85;7.70;;;23.70;67.60;;;;;;3049489;29;20127;-88
2021/09/11 12:52:37;;;;;;;9.07;7.60;;;23.70;67.70;;;;;;3049983;29;20562;-88
2021/09/11 12:54:09;;;;;;;13.48;7.88;;;23.70;67.60;;;;;;3049079;29;20139;-88
2021/09/11 12:55:41;;;;;;;7.95;7.25;;;23.70;67.50;;;;;;3050029;29;20048;-88
2021/09/11 12:57:13;;;;;;;8.40;7.10;;;23.70;67.50;;;;;;3049613;29;20396;-89
2021/09/11 12:58:44;;;;;;;8.32;6.85;;;23.70;67.30;;;;;;3049099;29;20227;-89
2021/09/11 13:00:18;;;;;;;10.07;7.30;;;23.70;67.40;;;;;;3048931;29;20131;-88
2021/09/11 13:01:50;;;;;;;8.50;7.10;;;23.70;67.30;;;;;;3049326;29;20075;-89
2021/09/11 13:03:21;;;;;;;9.15;7.13;;;23.70;67.10;;;;;;3048828;29;20507;-88
2021/09/11 13:04:56;;;;;;;8.30;6.40;;;23.70;67.10;;;;;;3049720;29;20474;-89
2021/09/11 13:06:28;;;;;;;8.35;7.35;;;23.70;67.00;;;;;;3051160;29;20095;-88
2021/09/11 13:08:00;;;;;;;8.50;7.00;;;23.70;67.00;;;;;;3048837;29;20052;-88
2021/09/11 13:09:33;;;;;;;8.82;6.78;;;23.70;66.90;;;;;;3049934;29;20048;-88
2021/09/11 13:11:05;;;;;;;;;;;23.60;66.90;;;;;;3049793;29;20059;-89
2021/09/11 13:12:37;;;;;;;8.38;6.53;;;23.60;67.00;;;;;;3049539;29;19923;-88
2021/09/11 13:14:09;;;;;;;7.68;6.60;;;23.60;67.10;;;;;;3049320;29;20523;-87
2021/09/11 13:15:41;;;;;;;7.32;6.63;;;23.60;67.10;;;;;;3049058;29;20059;-89
2021/09/11 13:17:13;;;;;;;9.38;6.47;;;23.60;67.10;;;;;;3049736;29;20047;-88
2021/09/11 13:18:53;;;;;;;8.80;6.95;;;23.50;67.00;;;;;;3048871;29;20052;-89
2021/09/11 13:20:28;;;;;;;8.75;6.82;;;23.60;67.10;;;;;;3050530;29;20052;-88
2021/09/11 13:22:04;;;;;;;7.60;6.53;;;23.50;67.00;;;;;;3059060;29;20079;-89
2021/09/11 13:23:35;;;;;;;9.25;6.55;;;23.60;67.00;;;;;;3059597;28;20051;-88
2021/09/11 13:25:08;;;;;;;9.20;6.50;;;23.60;67.00;;;;;;3061801;29;20126;-88
2021/09/11 13:26:40;;;;;;;7.50;6.20;;;23.50;66.90;;;;;;3061413;29;20052;-88
2021/09/11 13:28:16;;;;;;;6.53;5.90;;;23.50;66.70;;;;;;3060816;28;20043;-88
2021/09/11 13:29:48;;;;;;;7.70;6.50;;;23.50;66.70;;;;;;3061026;29;20062;-88
2021/09/11 13:31:20;;;;;;;7.10;6.40;;;23.60;66.70;;;;;;3060416;29;20505;-88
2021/09/11 13:32:54;;;;;;;9.45;6.45;;;23.60;66.50;;;;;;3060527;28;20292;-88
2021/09/11 13:34:30;;;;;;;6.90;6.20;;;23.50;66.40;;;;;;3061247;29;20079;-89
2021/09/11 13:36:02;;;;;;;6.95;6.15;;;23.60;66.40;;;;;;3058811;29;20068;-88
2021/09/11 13:37:35;;;;;;;7.47;6.22;;;23.60;66.20;;;;;;3049357;29;20171;-87
2021/09/11 13:39:07;;;;;;;6.93;6.07;;;23.60;66.30;;;;;;3049913;29;20526;-89
2021/09/11 13:40:39;;;;;;;7.07;5.80;;;23.60;66.10;;;;;;3054419;29;20099;-88
2021/09/11 13:42:11;;;;;;;6.30;5.70;;;23.60;66.10;;;;;;3057176;29;20310;-88
2021/09/11 13:43:43;;;;;;;6.70;5.90;;;23.60;66.10;;;;;;3057805;28;20107;-89
2021/09/11 13:45:15;;;;;;;7.07;6.00;;;23.70;66.10;;;;;;3049230;29;20503;-88
2021/09/11 13:46:47;;;;;;;8.50;6.03;;;23.70;65.90;;;;;;3049138;29;20664;-87
2021/09/11 13:48:18;;;;;;;6.70;6.00;;;23.70;65.80;;;;;;3052721;29;20047;-88
2021/09/11 13:49:50;;;;;;;6.10;5.57;;;23.70;65.80;;;;;;3062273;29;20105;-88
2021/09/11 13:51:22;;;;;;;7.00;6.30;;;23.70;65.80;;;;;;3063275;29;20199;-89
2021/09/11 13:52:55;;;;;;;7.03;5.85;;;23.70;65.70;;;;;;3061847;29;20491;-88
2021/09/11 13:54:27;;;;;;;7.15;5.70;;;23.70;65.70;;;;;;3063501;29;20052;-88
2021/09/11 13:55:59;;;;;;;7.20;5.60;;;23.70;65.60;;;;;;3062882;29;20051;-88
2021/09/11 13:57:34;;;;;;;5.93;5.32;;;23.80;65.70;;;;;;3063409;29;20050;-88
2021/09/11 13:59:06;;;;;;;6.40;5.15;;;23.80;65.70;;;;;;3062827;29;20594;-89
2021/09/11 14:00:38;;;;;;;5.97;5.38;;;23.80;65.60;;;;;;3063097;29;20059;-88
2021/09/11 14:02:09;;;;;;;6.32;5.72;;;23.90;65.70;;;;;;3058363;29;20399;-89
2021/09/11 14:03:41;;;;;;;7.70;5.60;;;23.90;65.60;;;;;;3063145;29;20055;-89
2021/09/11 14:05:17;;;;;;;6.43;5.70;;;23.90;65.50;;;;;;3064302;29;20054;-89
2021/09/11 14:06:48;;;;;;;6.47;5.45;;;24.00;65.30;;;;;;3054893;29;20048;-89
2021/09/11 14:08:21;;;;;;;5.82;5.22;;;24.00;65.10;;;;;;3059340;29;20044;-91
2021/09/11 14:09:53;;;;;;;9.07;5.80;;;24.00;65.00;;;;;;3052586;29;20056;-89
2021/09/11 14:11:25;;;;;;;9.18;6.35;;;24.10;65.10;;;;;;3062844;29;20048;-90
2021/09/11 14:12:57;;;;;;;8.00;5.80;;;24.10;65.30;;;;;;3063561;29;20513;-89
2021/09/11 14:14:28;;;;;;;10.75;6.22;;;24.20;65.00;;;;;;3064186;29;20052;-89
2021/09/11 14:16:00;;;;;;;8.30;5.50;;;24.20;65.00;;;;;;3062307;29;20052;-89
2021/09/11 14:17:35;;;;;;;8.68;6.72;;;24.20;65.10;;;;;;3051560;29;20048;-87
2021/09/11 14:19:06;;;;;;;9.88;6.53;;;24.20;65.10;;;;;;3051199;29;20104;-90
2021/09/11 14:20:37;;;;;;;11.23;6.75;;;24.20;65.20;;;;;;3051277;29;20052;-88
2021/09/11 14:22:09;;;;;;;9.90;6.93;;;24.10;65.20;;;;;;3050793;29;20058;-89
2021/09/11 14:23:42;;;;;;;10.60;6.68;;;24.10;65.40;;;;;;3050558;29;20059;-90
2021/09/11 14:25:14;;;;;;;10.68;6.65;;;24.10;65.40;;;;;;3051514;29;20500;-89
2021/09/11 14:26:46;;;;;;;12.88;6.82;;;24.00;65.60;;;;;;3051477;29;20099;-89
2021/09/11 14:28:18;;;;;;;13.32;6.93;;;24.00;65.90;;;;;;3050441;29;20052;-89
2021/09/11 14:29:50;;;;;;;11.68;6.80;;;24.10;65.50;;;;;;3051854;29;20064;-88
2021/09/11 14:31:21;;;;;;;10.77;6.63;;;24.00;65.60;;;;;;3049806;29;20044;-88
2021/09/11 14:33:03;;;;;;;11.02;6.75;;;24.10;65.60;;;;;;3050631;28;20052;-91
2021/09/11 14:34:38;;;;;;;12.35;7.15;;;24.00;65.80;;;;;;3051138;29;20084;-90
2021/09/11 14:36:17;;;;;;;12.77;7.22;;;24.00;65.90;;;;;;3053691;29;20058;-91
2021/09/11 14:38:05;;;;;;;10.32;6.72;;;24.00;66.00;;;;;;3054632;29;20051;-91
2021/09/11 14:39:46;;;;;;;12.20;7.22;;;23.90;66.00;;;;;;3057912;29;20220;-91
2021/09/11 14:41:18;;;;;;;9.60;6.45;;;23.90;66.20;;;;;;3054464;29;20055;-91
2021/09/11 14:42:52;;;;;;;10.45;6.78;;;23.90;66.20;;;;;;3050470;29;20114;-91
2021/09/11 14:44:23;;;;;;;9.63;6.68;;;23.90;66.40;;;;;;3056170;29;20063;-91
2021/09/11 14:45:55;;;;;;;8.82;6.63;;;23.90;66.40;;;;;;3061546;29;20434;-90
2021/09/11 14:47:29;;;;;;;8.50;6.60;;;23.80;66.30;;;;;;3063055;29;20454;-89
2021/09/11 14:49:01;;;;;;;7.07;6.28;;;23.80;66.40;;;;;;3062157;29;20059;-89
2021/09/11 14:50:33;;;;;;;11.20;6.95;;;23.80;66.40;;;;;;3063370;29;20054;-92
2021/09/11 14:52:06;;;;;;;11.60;6.90;;;23.80;66.40;;;;;;3063000;29;20103;-88
2021/09/11 14:53:38;;;;;;;8.80;6.68;;;23.80;66.40;;;;;;3062261;29;20130;-89
2021/09/11 14:55:11;;;;;;;9.52;6.43;;;23.80;66.50;;;;;;3062921;29;20463;-88
2021/09/11 14:56:43;;;;;;;8.60;6.95;;;23.80;66.50;;;;;;3063020;29;20059;-91
2021/09/11 14:58:15;;;;;;;9.18;6.03;;;23.80;66.40;;;;;;3062582;29;20499;-89
2021/09/11 14:59:48;;;;;;;9.35;6.57;;;23.80;66.40;;;;;;3063088;29;20055;-89
2021/09/11 15:01:20;;;;;;;9.27;7.43;;;23.80;66.40;;;;;;3061438;29;20047;-89
2021/09/11 15:02:52;;;;;;;9.23;6.72;;;23.80;66.40;;;;;;3062711;29;20052;-91
2021/09/11 15:04:32;;;;;;;8.23;6.80;;;23.80;66.30;;;;;;3063012;29;20459;-89
2021/09/11 15:06:05;;;;;;;8.70;6.57;;;23.70;66.20;;;;;;3061019;29;20063;-89
2021/09/11 15:07:36;;;;;;;9.77;6.30;;;23.80;66.40;;;;;;3062865;29;20051;-89
2021/09/11 15:09:08;;;;;;;8.82;6.63;;;23.70;66.30;;;;;;3062805;29;20067;-90
2021/09/11 15:10:43;;;;;;;8.70;6.40;;;23.70;66.20;;;;;;3062759;29;20059;-89
2021/09/11 15:12:15;;;;;;;8.77;6.32;;;23.80;66.20;;;;;;3062170;29;20079;-89
2021/09/11 15:13:47;;;;;;;7.15;6.13;;;23.80;66.30;;;;;;3062010;29;20047;-89
2021/09/11 15:15:18;;;;;;;9.20;6.60;;;23.70;66.20;;;;;;3062130;29;20055;-90
2021/09/11 15:16:51;;;;;;;12.55;6.20;;;23.80;66.20;;;;;;3062464;29;20123;-89
2021/09/11 15:18:23;;;;;;;9.13;6.25;;;23.80;66.20;;;;;;3061983;29;20493;-90
2021/09/11 15:20:04;;;;;;;9.30;6.40;;;23.80;66.20;;;;;;3061386;29;20506;-87
2021/09/11 15:21:36;;;;;;;7.32;6.57;;;23.80;66.20;;;;;;3062255;29;20056;-90
2021/09/11 15:23:11;;;;;;;9.85;6.40;;;23.80;66.10;;;;;;3061816;29;20047;-90
2021/09/11 15:24:51;;;;;;;8.00;6.43;;;23.80;66.00;;;;;;3062644;29;20115;-87
2021/09/11 15:26:27;;;;;;;7.40;6.43;;;23.80;65.80;;;;;;3057770;29;20563;-90
2021/09/11 15:27:59;;;;;;;8.13;6.20;;;23.80;66.00;;;;;;3055332;29;20507;-90
2021/09/11 15:29:31;;;;;;;10.20;6.30;;;23.80;66.00;;;;;;3058195;29;20058;-90
2021/09/11 15:31:03;;;;;;;7.47;6.20;;;23.80;66.00;;;;;;3060626;29;20423;-89
2021/09/11 15:32:35;;;;;;;8.35;6.30;;;23.70;65.80;;;;;;3061508;29;20055;-90
2021/09/11 15:34:06;;;;;;;7.90;6.40;;;23.80;65.90;;;;;;3061976;29;20055;-89
2021/09/11 15:35:41;;;;;;;9.13;6.65;;;23.80;65.90;;;;;;3059271;29;20052;-89
2021/09/11 15:37:13;;;;;;;8.32;6.38;;;23.80;65.90;;;;;;3065280;29;20134;-89
2021/09/11 15:38:47;;;;;;;8.27;6.35;;;23.80;65.90;;;;;;3065288;28;20048;-89
2021/09/11 15:40:18;;;;;;;8.05;6.10;;;23.80;65.90;;;;;;3062444;29;20059;-89
2021/09/11 15:41:56;;;;;;;7.43;6.07;;;23.80;65.90;;;;;;3050263;29;20048;-89
2021/09/11 15:43:33;;;;;;;8.15;6.38;;;23.80;65.90;;;;;;3050143;29;20059;-88
2021/09/11 15:45:10;;;;;;;7.85;6.30;;;23.80;65.90;;;;;;3060403;29;20506;-91
2021/09/11 15:46:42;;;;;;;9.45;6.07;;;23.80;65.90;;;;;;3055974;29;20107;-90
2021/09/11 15:48:16;;;;;;;9.35;6.63;;;23.80;65.80;;;;;;3061083;29;20044;-90
2021/09/11 15:49:49;;;;;;;6.93;6.22;;;23.80;65.80;;;;;;3062144;29;20062;-90
2021/09/11 15:51:23;;;;;;;7.55;6.03;;;23.80;65.80;;;;;;3061956;29;20114;-89
2021/09/11 15:52:54;;;;;;;7.32;6.50;;;23.80;65.80;;;;;;3061899;28;20055;-89
2021/09/11 15:54:29;;;;;;;6.43;5.80;;;23.80;65.80;;;;;;3062179;29;20052;-90
2021/09/11 15:56:04;;;;;;;9.68;6.22;;;23.80;65.80;;;;;;3062379;29;20051;-90
2021/09/11 15:57:47;;;;;;;7.93;5.97;;;23.80;65.70;;;;;;3062150;29;20043;-90
2021/09/11 15:59:19;;;;;;;6.97;6.07;;;23.80;65.70;;;;;;3062230;29;20475;-89
2021/09/11 16:00:51;;;;;;;6.75;6.05;;;23.80;65.60;;;;;;3061151;29;20044;-87
2021/09/11 16:02:23;;;;;;;7.28;6.10;;;23.80;65.70;;;;;;3061932;29;20511;-88
2021/09/11 16:03:56;;;;;;;6.47;5.82;;;23.80;65.80;;;;;;3058660;29;20147;-88
2021/09/11 16:05:30;;;;;;;6.45;5.80;;;23.80;65.70;;;;;;3050625;29;20056;-90
2021/09/11 16:07:06;;;;;;;6.78;6.05;;;23.80;66.30;;;;;;3050021;29;20522;-89
2021/09/11 16:08:39;;;;;;;7.68;6.07;;;23.80;65.70;;;;;;3048482;29;20059;-90
2021/09/11 16:10:28;;;;;;;7.05;6.35;;;23.80;65.80;;;;;;3050213;29;20405;-90
2021/09/11 16:12:03;;;;;;;6.78;6.00;;;23.80;65.80;;;;;;3047789;29;20083;-89
2021/09/11 16:13:43;;;;;;;7.18;6.47;;;23.80;65.80;;;;;;3049081;29;20056;-90
2021/09/11 16:15:15;;;;;;;7.55;6.50;;;23.80;65.70;;;;;;3041284;29;20060;-90
2021/09/11 16:16:47;;;;;;;7.03;6.33;;;23.80;65.70;;;;;;3061269;29;20495;-90
2021/09/11 16:18:33;;;;;;;7.07;6.38;;;23.80;65.70;;;;;;3052103;29;20044;-89
2021/09/11 16:20:09;;;;;;;7.50;6.20;;;23.80;65.70;;;;;;3050916;29;20055;-90
2021/09/11 16:21:51;;;;;;;7.20;6.22;;;23.80;65.90;;;;;;3049989;29;20052;-90
2021/09/11 16:23:23;;;;;;;8.13;6.60;;;23.80;65.80;;;;;;3049533;29;20419;-90
2021/09/11 16:24:57;;;;;;;9.63;5.93;;;23.80;65.90;;;;;;3050303;29;20064;-90
2021/09/11 16:26:29;;;;;;;7.63;6.45;;;23.80;65.80;;;;;;3050408;29;20062;-90
2021/09/11 16:28:01;;;;;;;6.53;5.93;;;23.70;65.70;;;;;;3049458;29;20067;-90
2021/09/11 16:29:44;;;;;;;7.55;5.70;;;23.70;65.90;;;;;;3050438;29;20056;-90
2021/09/11 16:31:16;;;;;;;8.13;5.85;;;23.70;65.80;;;;;;3059278;29;20134;-90
2021/09/11 16:32:48;;;;;;;9.20;6.10;;;23.80;66.00;;;;;;3060639;28;20059;-91
2021/09/11 16:34:24;;;;;;;9.05;6.68;;;23.80;65.90;;;;;;3062391;29;20541;-91
2021/09/11 16:36:14;;;;;;;14.48;6.00;;;23.80;66.40;;;;;;3062904;29;20050;-90
2021/09/11 16:37:46;;;;;;;9.18;5.88;;;23.80;66.70;;;;;;3061556;29;20130;-90
2021/09/11 16:39:18;;;;;;;9.57;6.28;;;23.80;66.30;;;;;;3057767;29;20082;-89
2021/09/11 16:40:51;;;;;;;10.40;5.90;;;23.90;66.10;;;;;;3050510;29;20499;-90
2021/09/11 16:42:32;;;;;;;15.85;6.60;;;23.90;66.00;;;;;;3054026;29;20052;-90
2021/09/11 16:44:04;;;;;;;15.95;6.97;;;23.80;67.20;;;;;;3059771;28;20058;-90
2021/09/11 16:45:39;;;;;;;11.03;8.27;;;23.90;66.40;;;;;;3049558;29;20120;-91
2021/09/11 16:47:13;;;;;;;9.25;7.57;;;23.60;67.20;;;;;;3050867;29;20060;-89
2021/09/11 16:48:48;;;;;;;12.93;9.52;;;23.60;68.40;;;;;;3050177;29;20595;-90
2021/09/11 16:50:21;;;;;;;10.80;9.48;;;23.40;67.80;;;;;;3050175;29;20471;-91
2021/09/11 16:51:53;;;;;;;10.90;9.02;;;23.20;68.40;;;;;;3049753;29;20176;-90
2021/09/11 16:53:25;;;;;;;14.38;9.88;;;23.30;68.20;;;;;;3049877;29;20557;-91
2021/09/11 16:55:00;;;;;;;14.18;11.15;;;23.30;68.30;;;;;;3051056;29;20052;-90
2021/09/11 16:56:32;;;;;;;76.28;45.75;;;23.30;68.50;;;;;;3050655;29;20064;-88
2021/09/11 16:58:03;;;;;;;500.80;313.83;;;23.30;68.30;;;;;;3049966;29;20052;-90
2021/09/11 16:59:35;;;;;;;551.88;360.52;;;23.30;68.60;;;;;;3050738;29;20495;-90
2021/09/11 17:01:09;;;;;;;608.03;404.73;;;23.40;68.80;;;;;;3049708;29;20047;-90
2021/09/11 17:02:42;;;;;;;554.63;360.70;;;23.40;68.80;;;;;;3049776;29;20063;-90
2021/09/11 17:04:14;;;;;;;;;;;23.50;68.80;;;;;;3050727;29;20052;-90
2021/09/11 17:05:48;;;;;;;613.35;422.13;;;23.60;68.30;;;;;;3051720;29;19923;-90
2021/09/11 17:07:22;;;;;;;576.45;382.92;;;23.60;69.10;;;;;;3062275;29;20062;-90
2021/09/11 17:08:54;;;;;;;570.00;370.48;;;23.70;69.60;;;;;;3052648;29;20052;-89
2021/09/11 17:10:27;;;;;;;566.97;372.70;;;23.80;69.50;;;;;;3050398;29;20044;-89
2021/09/11 17:11:59;;;;;;;552.33;366.05;;;23.80;69.20;;;;;;3050185;29;20274;-88
2021/09/11 17:13:30;;;;;;;546.28;360.88;;;23.80;69.70;;;;;;3049638;29;20526;-91
2021/09/11 17:15:02;;;;;;;545.17;358.05;;;23.90;69.30;;;;;;3050380;29;20052;-90
2021/09/11 17:16:36;;;;;;;541.55;353.35;;;23.90;69.40;;;;;;3049398;29;20054;-90
2021/09/11 17:18:08;;;;;;;547.88;353.90;;;24.00;69.50;;;;;;3049021;29;20052;-90
2021/09/11 17:19:46;;;;;;;530.50;344.52;;;24.00;69.30;;;;;;3050248;29;20098;-91
2021/09/11 17:21:18;;;;;;;521.95;341.08;;;24.00;69.30;;;;;;3049737;29;20445;-89
2021/09/11 17:22:57;;;;;;;520.83;336.57;;;24.00;69.30;;;;;;3049270;29;20060;-90
2021/09/11 17:24:29;;;;;;;518.00;336.60;;;24.00;69.30;;;;;;3050022;29;20135;-90
2021/09/11 17:26:01;;;;;;;507.15;329.98;;;24.10;69.30;;;;;;3050211;29;20115;-90
2021/09/11 17:27:33;;;;;;;492.52;317.55;;;24.10;69.20;;;;;;3050231;29;20551;-89
2021/09/11 17:29:08;;;;;;;490.00;313.08;;;24.00;69.30;;;;;;3050710;29;20103;-90
2021/09/11 17:30:41;;;;;;;498.50;317.92;;;24.10;69.40;;;;;;3053467;29;20071;-89
2021/09/11 17:32:14;;;;;;;480.33;309.67;;;24.10;69.20;;;;;;3050043;29;20052;-90
2021/09/11 17:33:49;;;;;;;482.15;306.15;;;24.10;69.30;;;;;;3056869;29;20586;-89
2021/09/11 17:35:37;;;;;;;471.60;300.00;;;24.10;69.40;;;;;;3058069;29;20111;-91
2021/09/11 17:37:09;;;;;;;474.67;301.23;;;24.10;69.40;;;;;;3060149;29;20052;-91
2021/09/11 17:38:41;;;;;;;458.63;290.77;;;24.10;69.40;;;;;;3052400;29;20051;-91
2021/09/11 17:40:13;;;;;;;447.43;278.23;;;24.00;69.70;;;;;;3062096;29;20059;-91
2021/09/11 17:41:55;;;;;;;435.42;270.17;;;24.00;69.70;;;;;;3061677;29;20550;-92
2021/09/11 17:43:30;;;;;;;431.20;268.58;;;24.10;70.00;;;;;;3054780;29;20056;-92
2021/09/11 17:45:03;;;;;;;429.38;269.27;;;24.10;69.70;;;;;;3049911;29;20500;-90
2021/09/11 17:46:35;;;;;;;436.40;267.13;;;24.10;69.70;;;;;;3048335;29;20488;-91
2021/09/11 17:48:12;;;;;;;426.98;260.38;;;24.00;69.40;;;;;;3040938;29;20123;-92
2021/09/11 17:49:55;;;;;;;422.55;259.63;;;24.00;69.40;;;;;;3050513;29;20135;-91
2021/09/11 17:51:27;;;;;;;418.17;255.35;;;24.00;69.50;;;;;;3050447;29;20476;-90
2021/09/11 17:53:05;;;;;;;421.80;253.52;;;23.90;69.40;;;;;;3049307;29;20063;-89
2021/09/11 17:54:39;;;;;;;411.45;247.68;;;23.90;69.40;;;;;;3050358;29;20107;-92
2021/09/11 17:56:11;;;;;;;417.27;251.07;;;23.90;69.20;;;;;;3051204;29;20063;-88
2021/09/11 17:57:45;;;;;;;402.15;245.63;;;24.00;69.20;;;;;;3049711;29;20495;-89
2021/09/11 17:59:20;;;;;;;394.23;242.70;;;23.90;69.00;;;;;;3050237;29;20056;-91
2021/09/11 18:00:57;;;;;;;395.13;243.63;;;23.90;69.10;;;;;;3049567;29;20052;-90
2021/09/11 18:02:29;;;;;;;383.08;232.60;;;23.90;69.00;;;;;;3049854;29;20052;-89
2021/09/11 18:04:18;;;;;;;384.17;232.85;;;24.00;68.90;;;;;;3049688;29;20064;-91
2021/09/11 18:05:52;;;;;;;364.23;220.07;;;24.00;68.70;;;;;;3051662;29;20056;-89
2021/09/11 18:07:24;;;;;;;363.75;221.23;;;23.90;68.90;;;;;;3050014;29;20048;-90
2021/09/11 18:08:56;;;;;;;356.83;216.70;;;23.90;69.10;;;;;;3057743;29;20059;-90
2021/09/11 18:10:30;;;;;;;348.33;210.98;;;23.90;69.10;;;;;;3061894;29;20048;-91
2021/09/11 18:12:02;;;;;;;343.30;203.73;;;23.80;69.10;;;;;;3061271;29;20098;-91
2021/09/11 18:13:34;;;;;;;321.38;190.55;;;23.90;69.10;;;;;;3060507;29;20525;-90
2021/09/11 18:15:07;;;;;;;314.10;189.40;;;23.90;68.90;;;;;;3060462;29;20056;-90
2021/09/11 18:16:41;;;;;;;300.85;180.85;;;23.90;68.80;;;;;;3061827;29;20048;-90
2021/09/11 18:18:12;;;;;;;285.45;172.30;;;23.80;68.70;;;;;;3060490;29;20095;-91
2021/09/11 18:19:46;;;;;;;285.02;164.95;;;23.80;68.60;;;;;;3061192;29;20127;-89
2021/09/11 18:21:18;;;;;;;310.48;182.65;;;23.80;68.70;;;;;;3053347;29;20605;-88
2021/09/11 18:22:50;;;;;;;279.23;165.43;;;23.80;68.70;;;;;;3060935;28;20554;-89
2021/09/11 18:24:22;;;;;;;267.63;156.35;;;23.90;68.80;;;;;;3061197;29;20119;-90
2021/09/11 18:25:54;;;;;;;261.35;148.07;;;23.90;68.50;;;;;;3049868;29;20143;-89
2021/09/11 18:27:28;;;;;;;243.52;140.43;;;23.80;68.20;;;;;;3049214;29;20048;-89
2021/09/11 18:29:21;;;;;;;246.27;142.50;;;23.80;68.10;;;;;;3048587;29;20056;-89
2021/09/11 18:31:03;;;;;;;227.30;132.35;;;23.80;67.90;;;;;;3044758;29;20114;-88
2021/09/11 18:32:36;;;;;;;229.95;130.75;;;23.80;67.80;;;;;;3056933;29;20048;-90
2021/09/11 18:34:08;;;;;;;218.10;126.85;;;23.80;67.90;;;;;;3048822;29;20464;-90
2021/09/11 18:35:41;;;;;;;202.60;122.55;;;23.80;67.70;;;;;;3050109;29;20135;-89
2021/09/11 18:37:14;;;;;;;202.60;115.25;;;23.80;67.50;;;;;;3051430;29;20104;-89
2021/09/11 18:38:46;;;;;;;196.82;115.60;;;23.80;67.50;;;;;;3050578;29;20051;-89
2021/09/11 18:40:18;;;;;;;211.17;117.33;;;23.80;67.40;;;;;;3051332;29;20052;-90
2021/09/11 18:41:50;;;;;;;195.83;112.40;;;23.80;67.30;;;;;;3051166;29;20355;-90
2021/09/11 18:43:22;;;;;;;193.70;112.90;;;23.70;67.10;;;;;;3050876;29;20052;-89
2021/09/11 19:31:39;;;;;;;141.90;85.80;;;23.60;63.30;;;;;;3048810;29;20388;-85
2021/09/11 19:33:11;;;;;;;142.32;84.20;;;23.60;63.40;;;;;;3040941;29;20044;-86
2021/09/11 19:34:43;;;;;;;134.52;83.40;;;23.60;63.40;;;;;;3040332;29;20056;-87
2021/09/11 19:36:15;;;;;;;128.13;75.60;;;23.60;62.80;;;;;;3045506;29;20072;-86
2021/09/11 19:37:47;;;;;;;125.68;73.07;;;23.60;62.40;;;;;;3051744;29;20507;-86
2021/09/11 19:39:19;;;;;;;125.18;72.45;;;23.60;62.40;;;;;;3051829;29;20510;-87
2021/09/11 19:40:51;;;;;;;114.50;68.85;;;23.60;62.40;;;;;;3051675;29;20060;-87
2021/09/11 19:42:31;;;;;;;121.05;72.28;;;23.50;62.30;;;;;;3051502;29;20059;-88
2021/09/11 19:44:06;;;;;;;114.88;68.50;;;23.60;62.20;;;;;;3051357;29;20455;-91
2021/09/11 19:45:40;;;;;;;115.43;71.18;;;23.50;61.80;;;;;;3051060;29;20048;-91
2021/09/11 19:47:15;;;;;;;114.60;70.82;;;23.60;61.90;;;;;;3050592;29;20090;-89
2021/09/11 19:48:47;;;;;;;119.95;69.47;;;23.50;61.80;;;;;;3039268;29;20060;-89
2021/09/11 19:50:19;;;;;;;127.28;68.75;;;23.50;61.50;;;;;;3040009;29;20048;-90
2021/09/11 19:51:57;;;;;;;116.80;68.68;;;23.50;62.10;;;;;;3039066;29;20073;-88
2021/09/11 19:53:34;;;;;;;115.38;68.68;;;23.50;61.30;;;;;;3039122;29;20052;-86
2021/09/11 19:55:10;;;;;;;110.60;67.63;;;23.50;61.20;;;;;;3039872;29;20120;-89
2021/09/11 19:56:51;;;;;;;106.68;64.60;;;23.50;61.10;;;;;;3040173;29;20052;-89
2021/09/11 19:58:25;;;;;;;109.10;67.85;;;23.50;60.70;;;;;;3039581;29;20423;-89
2021/09/11 19:59:57;;;;;;;107.43;65.10;;;23.50;60.40;;;;;;3039598;29;20492;-88
2021/09/11 20:01:32;;;;;;;109.10;67.43;;;23.50;60.80;;;;;;3037904;29;20044;-89
2021/09/11 20:03:05;;;;;;;104.40;63.67;;;23.50;60.90;;;;;;3038339;29;20083;-89
2021/09/11 20:04:42;;;;;;;103.05;64.38;;;23.50;60.90;;;;;;3039144;29;20064;-88
2021/09/11 20:06:14;;;;;;;101.07;63.20;;;23.50;61.10;;;;;;3045173;29;20496;-89
2021/09/11 20:07:49;;;;;;;103.20;64.05;;;23.50;61.10;;;;;;3045026;29;20056;-89
2021/09/11 20:09:20;;;;;;;99.75;63.05;;;23.50;61.20;;;;;;3038553;29;20567;-88
2021/09/11 20:10:52;;;;;;;111.72;64.65;;;23.50;61.20;;;;;;3038617;29;20045;-89
2021/09/11 20:12:27;;;;;;;101.97;61.47;;;23.50;61.30;;;;;;3048942;29;20056;-88
2021/09/11 20:14:00;;;;;;;102.00;62.58;;;23.50;61.10;;;;;;3049726;29;20586;-88
2021/09/11 20:15:32;;;;;;;98.63;60.88;;;23.50;61.30;;;;;;3049529;29;20050;-88
2021/09/11 20:17:07;;;;;;;103.32;61.10;;;23.50;61.30;;;;;;3050488;29;20092;-89
2021/09/11 20:18:45;;;;;;;95.47;59.95;;;23.50;61.10;;;;;;3049312;29;20411;-89